Time;durP1;ratioP1;P1;durP2;ratioP2;P2;SDS_P1;SDS_P2;PMS_P1;PMS_P2;Temp;Humidity;BMP_temperature;BMP_pressure;BME280_temperature;BME280_humidity;BME280_pressure;Samples;Min_cycle;Max_cycle;Signal;HPM_P1;HPM_P2
2024/02/11 00:00:20;;;;;;;42.90;21.20;;;;;;;-8.70;100.00;140170.09;110403;1276;22971;-66
2024/02/11 00:03:07;;;;;;;46.20;22.10;;;;;;;-8.71;100.00;140168.61;110416;1276;22847;-65
2024/02/11 00:05:55;;;;;;;45.90;21.00;;;;;;;-8.71;100.00;140166.66;110365;1276;22136;-63
2024/02/11 00:08:41;;;;;;;43.90;21.40;;;;;;;-8.71;100.00;140168.89;110328;1276;22122;-64
2024/02/11 00:11:28;;;;;;;44.20;22.10;;;;;;;-8.72;100.00;140165.19;110392;1256;22198;-65
2024/02/11 00:14:14;;;;;;;37.20;19.50;;;;;;;-8.73;100.00;140163.44;110399;1276;22154;-65
2024/02/11 00:17:01;;;;;;;47.00;20.90;;;;;;;-8.71;100.00;140168.13;110327;1276;22138;-62
2024/02/11 00:19:47;;;;;;;34.00;19.20;;;;;;;-8.72;100.00;140165.67;110393;1276;22155;-64
2024/02/11 00:22:33;;;;;;;39.30;19.60;;;;;;;-8.73;100.00;140163.70;110415;1276;22130;-66
2024/02/11 00:25:19;;;;;;;40.80;19.30;;;;;;;-8.72;100.00;140165.44;110341;1277;22200;-64
2024/02/11 00:28:08;;;;;;;33.80;19.30;;;;;;;-8.72;100.00;140166.16;110322;1276;22228;-65
2024/02/11 00:30:55;;;;;;;39.50;19.40;;;;;;;-8.69;100.00;140171.84;110327;1276;22833;-64
2024/02/11 00:33:41;;;;;;;34.60;18.80;;;;;;;-8.69;100.00;140172.81;110387;1276;22178;-63
2024/02/11 00:36:27;;;;;;;30.90;18.20;;;;;;;-8.69;100.00;140171.59;110397;1276;22090;-67
2024/02/11 00:39:14;;;;;;;34.40;18.40;;;;;;;-8.69;100.00;140173.06;110321;1276;22147;-64
2024/02/11 00:41:59;;;;;;;31.40;17.50;;;;;;;-8.68;100.00;140174.78;110332;1276;22134;-63
2024/02/11 00:44:46;;;;;;;33.90;18.70;;;;;;;-8.68;100.00;140174.53;110347;1276;22856;-62
2024/02/11 00:47:32;;;;;;;33.90;18.20;;;;;;;-8.69;100.00;140172.83;110336;1276;22248;-65
2024/02/11 00:50:18;;;;;;;34.20;17.70;;;;;;;-8.70;100.00;140171.13;110315;1276;22165;-64
2024/02/11 00:53:04;;;;;;;33.80;17.90;;;;;;;-8.69;100.00;140172.34;110388;1264;22151;-67
2024/02/11 00:55:51;;;;;;;34.30;18.30;;;;;;;-8.68;100.00;140175.28;110343;1276;22120;-66
2024/02/11 00:58:37;;;;;;;29.40;16.30;;;;;;;-8.68;100.00;140176.27;110446;1276;22178;-64
2024/02/11 01:01:23;;;;;;;34.60;17.70;;;;;;;-8.69;100.00;140172.83;110371;1276;22144;-66
2024/02/11 01:04:11;;;;;;;33.40;17.50;;;;;;;-8.68;100.00;140174.05;110355;1276;22127;-65
2024/02/11 01:06:58;;;;;;;33.40;17.90;;;;;;;-8.67;100.00;140177.52;110356;1276;22223;-64
2024/02/11 01:09:44;;;;;;;33.70;18.20;;;;;;;-8.63;100.00;140188.84;110344;1276;22128;-66
2024/02/11 01:12:30;;;;;;;36.70;17.30;;;;;;;-8.59;100.00;140197.00;110345;1276;22236;-68
2024/02/11 01:15:16;;;;;;;37.50;17.00;;;;;;;-8.59;100.00;140197.97;110361;1276;22131;-67
2024/02/11 01:18:03;;;;;;;36.90;17.40;;;;;;;-8.60;100.00;140194.03;110387;1276;22144;-65
2024/02/11 01:20:50;;;;;;;35.30;18.10;;;;;;;-8.60;100.00;140194.78;110360;1276;22103;-67
2024/02/11 01:23:35;;;;;;;34.90;16.20;;;;;;;-8.60;100.00;140195.75;110367;1276;22117;-65
2024/02/11 01:26:21;;;;;;;28.10;14.80;;;;;;;-8.58;100.00;140200.20;110336;1276;22814;-67
2024/02/11 01:29:08;;;;;;;37.50;16.80;;;;;;;-8.59;100.00;140197.97;110676;1254;22161;-65
2024/02/11 01:31:54;;;;;;;30.90;15.60;;;;;;;-8.61;100.00;140193.28;110321;1276;22141;-66
2024/02/11 01:34:40;;;;;;;34.00;16.90;;;;;;;-8.61;100.00;140193.30;110337;1276;22142;-68
2024/02/11 01:37:27;;;;;;;27.90;16.00;;;;;;;-8.60;100.00;140194.75;110329;1276;22178;-64
2024/02/11 01:40:17;;;;;;;38.30;18.20;;;;;;;-8.58;100.00;140199.70;110332;1276;22139;-66
2024/02/11 01:43:10;;;;;;;38.40;16.70;;;;;;;-8.56;100.00;140204.14;110396;1276;22154;-67
2024/02/11 01:45:57;;;;;;;35.10;17.40;;;;;;;-8.55;100.00;140206.86;110393;1276;22809;-64
2024/02/11 01:48:43;;;;;;;40.60;18.40;;;;;;;-8.55;100.00;140207.34;110351;1276;22276;-62
2024/02/11 01:51:34;;;;;;;43.60;17.70;;;;;;;-8.54;100.00;140209.58;110363;1276;22115;-65
2024/02/11 01:54:21;;;;;;;33.60;17.80;;;;;;;-8.50;100.00;140217.70;110333;1276;22206;-65
2024/02/11 01:57:07;;;;;;;43.60;21.40;;;;;;;-8.46;100.00;140227.08;110194;1278;22143;-66
2024/02/11 01:59:54;;;;;;;33.90;19.00;;;;;;;-8.46;100.00;140228.55;110194;1278;22122;-64
2024/02/11 02:02:42;;;;;;;38.30;18.40;;;;;;;-8.44;100.00;140232.50;110302;1278;22150;-68
2024/02/11 02:05:28;;;;;;;40.80;20.80;;;;;;;-8.42;100.00;140236.94;110311;1278;22141;-64
2024/02/11 02:08:14;;;;;;;40.10;20.00;;;;;;;-8.42;100.00;140238.42;110297;1278;22140;-65
2024/02/11 02:11:00;;;;;;;40.40;21.70;;;;;;;-8.41;100.00;140238.91;110176;1278;22097;-66
2024/02/11 02:13:47;;;;;;;38.70;20.30;;;;;;;-8.43;100.00;140234.47;110178;1278;22144;-67
2024/02/11 02:16:33;;;;;;;45.40;21.10;;;;;;;-8.45;100.00;140231.27;110186;1278;22129;-66
2024/02/11 02:19:20;;;;;;;38.60;19.60;;;;;;;-8.45;100.00;140231.03;110163;1278;22116;-64
2024/02/11 02:22:07;;;;;;;36.70;19.80;;;;;;;-8.47;100.00;140225.84;110202;1278;22098;-65
2024/02/11 02:24:52;;;;;;;39.40;19.30;;;;;;;-8.47;100.00;140224.59;110195;1278;22148;-64
2024/02/11 02:27:40;;;;;;;32.90;17.30;;;;;;;-8.49;100.00;140221.16;110285;1278;22149;-67
2024/02/11 02:30:27;;;;;;;35.80;19.80;;;;;;;-8.47;100.00;140224.84;110310;1278;22137;-65
2024/02/11 02:33:13;;;;;;;39.40;19.90;;;;;;;-8.46;100.00;140227.33;110205;1278;22236;-66
2024/02/11 02:36:01;;;;;;;35.90;19.30;;;;;;;-8.45;100.00;140229.78;110320;1278;22132;-66
2024/02/11 02:38:47;;;;;;;37.40;18.30;;;;;;;-8.40;100.00;140242.84;110203;1278;22251;-64
2024/02/11 02:41:33;;;;;;;33.80;17.90;;;;;;;-8.36;100.00;140252.91;110189;1278;22148;-64
2024/02/11 02:44:20;;;;;;;34.40;18.50;;;;;;;-8.34;100.00;140256.61;110169;1278;22156;-63
2024/02/11 02:47:06;;;;;;;36.10;17.30;;;;;;;-8.35;100.00;140255.63;110192;1278;22099;-65
2024/02/11 02:49:52;;;;;;;33.60;16.60;;;;;;;-8.35;100.00;140254.41;110329;1278;22146;-68
2024/02/11 02:52:39;;;;;;;40.40;17.80;;;;;;;-8.32;100.00;140261.05;110322;1278;22802;-68
2024/02/11 02:55:25;;;;;;;32.70;17.60;;;;;;;-8.29;100.00;140270.17;110186;1278;22155;-66
2024/02/11 02:58:13;;;;;;;35.10;18.90;;;;;;;-8.26;100.00;140276.59;110186;1278;22163;-67
2024/02/11 03:01:04;;;;;;;35.60;19.00;;;;;;;-8.25;100.00;140279.05;110312;1278;22147;-66
2024/02/11 03:03:50;;;;;;;36.60;19.90;;;;;;;-8.26;100.00;140275.38;110170;1278;22144;-63
2024/02/11 03:06:37;;;;;;;36.60;18.80;;;;;;;-8.26;100.00;140276.59;110298;1278;22115;-64
2024/02/11 03:09:24;;;;;;;43.40;20.40;;;;;;;-8.26;100.00;140277.08;110175;1278;22147;-64
2024/02/11 03:12:11;;;;;;;44.60;20.50;;;;;;;-8.24;100.00;140281.28;110190;1278;22135;-63
2024/02/11 03:14:57;;;;;;;40.90;20.20;;;;;;;-8.23;100.00;140282.53;110176;1278;22119;-64
2024/02/11 03:17:44;;;;;;;36.60;19.30;;;;;;;-8.22;100.00;140285.72;110334;1278;22204;-65
2024/02/11 03:20:30;;;;;;;48.00;23.70;;;;;;;-8.24;100.00;140280.78;110196;1278;22239;-65
2024/02/11 03:23:16;;;;;;;40.80;20.90;;;;;;;-8.23;100.00;140284.00;110190;1278;22132;-64
2024/02/11 03:26:02;;;;;;;37.30;19.20;;;;;;;-8.22;100.00;140286.95;110365;1278;22135;-63
2024/02/11 03:28:49;;;;;;;42.30;20.80;;;;;;;-8.24;100.00;140281.78;110362;1278;22777;-63
2024/02/11 03:31:36;;;;;;;37.90;20.20;;;;;;;-8.24;100.00;140280.53;110185;1278;22135;-62
2024/02/11 03:34:22;;;;;;;36.90;19.30;;;;;;;-8.24;100.00;140282.03;110196;1278;22116;-64
2024/02/11 03:37:08;;;;;;;35.50;18.50;;;;;;;-8.23;100.00;140284.23;110186;1278;22136;-66
2024/02/11 03:39:54;;;;;;;36.10;18.00;;;;;;;-8.23;100.00;140283.48;110320;1278;22127;-66
2024/02/11 03:42:40;;;;;;;44.10;18.80;;;;;;;-8.21;100.00;140287.95;110319;1278;22198;-67
2024/02/11 03:45:26;;;;;;;37.80;16.50;;;;;;;-8.21;100.00;140287.94;110178;1276;22127;-64
2024/02/11 03:48:18;;;;;;;34.30;17.40;;;;;;;-8.22;100.00;140286.72;110191;1278;22145;-64
2024/02/11 03:51:07;;;;;;;36.40;17.80;;;;;;;-8.21;100.00;140287.70;110183;1278;22813;-65
2024/02/11 03:53:53;;;;;;;37.10;17.70;;;;;;;-8.21;100.00;140289.17;110397;1278;22821;-65
2024/02/11 03:56:42;;;;;;;36.90;18.70;;;;;;;-8.21;100.00;140288.70;110358;1277;22126;-67
2024/02/11 03:59:28;;;;;;;37.40;19.00;;;;;;;-8.22;100.00;140285.22;110199;1278;22156;-65
2024/02/11 04:02:14;;;;;;;35.90;17.60;;;;;;;-8.26;100.00;140276.59;110195;1278;22160;-66
2024/02/11 04:05:00;;;;;;;33.60;17.20;;;;;;;-8.29;100.00;140269.47;110211;1278;22110;-64
2024/02/11 04:07:46;;;;;;;33.90;17.50;;;;;;;-8.27;100.00;140273.41;110649;1260;22320;-65
2024/02/11 04:10:36;;;;;;;33.60;16.20;;;;;;;-8.24;100.00;140282.25;110324;1278;22099;-65
2024/02/11 04:13:26;;;;;;;33.20;17.30;;;;;;;-8.20;100.00;140290.41;110192;1278;22848;-64
2024/02/11 04:16:17;;;;;;;36.10;17.60;;;;;;;-8.18;100.00;140296.09;110195;1278;22159;-66
2024/02/11 04:19:05;;;;;;;33.80;17.60;;;;;;;-8.17;100.00;140297.81;110202;1278;22861;-65
2024/02/11 04:21:51;;;;;;;31.10;16.40;;;;;;;-8.18;100.00;140295.34;110321;1278;22239;-67
2024/02/11 04:24:40;;;;;;;36.30;18.70;;;;;;;-8.16;100.00;140299.78;110199;1278;22134;-65
2024/02/11 04:27:26;;;;;;;35.50;18.50;;;;;;;-8.18;100.00;140296.09;110168;1278;22900;-65
2024/02/11 04:30:15;;;;;;;42.10;20.60;;;;;;;-8.17;100.00;140299.03;110335;1278;22186;-65
2024/02/11 04:33:04;;;;;;;42.50;20.30;;;;;;;-8.15;100.00;140302.00;110190;1278;22117;-66
2024/02/11 04:35:52;;;;;;;40.70;22.10;;;;;;;-8.13;100.00;140307.92;110314;1278;22144;-66
2024/02/11 04:38:38;;;;;;;45.60;22.70;;;;;;;-8.16;100.00;140299.53;110290;1278;22160;-62
2024/02/11 04:41:24;;;;;;;46.80;25.30;;;;;;;-8.19;100.00;140294.84;110207;1278;22161;-65
2024/02/11 04:44:11;;;;;;;44.10;21.80;;;;;;;-8.17;100.00;140297.81;110182;1278;22134;-63
2024/02/11 04:47:00;;;;;;;37.10;19.10;;;;;;;-8.18;100.00;140295.59;110293;1278;22878;-65
2024/02/11 04:49:47;;;;;;;40.90;19.80;;;;;;;-8.18;100.00;140295.09;110227;1278;22156;-63
2024/02/11 04:52:35;;;;;;;41.70;19.80;;;;;;;-8.18;100.00;140296.34;110214;1278;22141;-67
2024/02/11 04:55:28;;;;;;;37.50;19.90;;;;;;;-8.18;100.00;140295.09;110191;1278;22111;-62
2024/02/11 04:58:14;;;;;;;34.60;17.80;;;;;;;-8.20;100.00;140291.63;110199;1278;22155;-63
2024/02/11 05:01:02;;;;;;;40.20;19.60;;;;;;;-8.20;100.00;140291.89;110340;1278;22190;-65
2024/02/11 05:03:49;;;;;;;37.00;18.90;;;;;;;-8.21;100.00;140287.45;110348;1278;22215;-64
2024/02/11 05:06:38;;;;;;;37.90;21.00;;;;;;;-8.21;100.00;140289.91;110180;1278;22158;-67
2024/02/11 05:09:26;;;;;;;36.10;19.30;;;;;;;-8.22;100.00;140285.72;110304;1278;22150;-67
2024/02/11 05:12:14;;;;;;;35.20;19.20;;;;;;;-8.25;100.00;140279.08;110291;1278;22142;-65
2024/02/11 05:15:01;;;;;;;38.10;19.60;;;;;;;-8.26;100.00;140274.88;110199;1278;22128;-65
2024/02/11 05:17:50;;;;;;;33.70;18.50;;;;;;;-8.28;100.00;140271.42;110285;1277;22196;-63
2024/02/11 05:20:38;;;;;;;34.70;18.80;;;;;;;-8.29;100.00;140269.47;110182;1278;22152;-63
2024/02/11 05:23:24;;;;;;;37.40;18.40;;;;;;;-8.26;100.00;140275.84;110118;1278;22159;-64
2024/02/11 05:26:16;;;;;;;31.90;18.00;;;;;;;-8.24;100.00;140282.03;110203;1278;22137;-64
2024/02/11 05:29:03;;;;;;;32.90;17.40;;;;;;;-8.25;100.00;140278.08;110307;1278;22230;-65
2024/02/11 05:31:50;;;;;;;37.80;18.90;;;;;;;-8.25;100.00;140278.81;110312;1278;22124;-63
2024/02/11 05:34:38;;;;;;;36.70;19.40;;;;;;;-8.25;100.00;140278.31;110229;1277;22840;-65
2024/02/11 05:37:25;;;;;;;31.60;17.60;;;;;;;-8.29;100.00;140268.47;110279;1265;22836;-64
2024/02/11 05:40:12;;;;;;;40.00;17.60;;;;;;;-8.31;100.00;140265.73;110296;1278;22790;-64
2024/02/11 05:42:59;;;;;;;39.20;18.40;;;;;;;-8.30;100.00;140266.22;110202;1278;22135;-65
2024/02/11 05:45:45;;;;;;;27.80;16.30;;;;;;;-8.31;100.00;140264.25;110460;1260;22172;-67
2024/02/11 05:48:31;;;;;;;44.90;19.70;;;;;;;-8.32;100.00;140262.78;110221;1278;22219;-64
2024/02/11 05:51:17;;;;;;;34.40;18.20;;;;;;;-8.31;100.00;140265.97;110302;1278;22840;-65
2024/02/11 05:54:04;;;;;;;36.60;20.30;;;;;;;-8.30;100.00;140266.22;110214;1278;22153;-65
2024/02/11 05:56:50;;;;;;;30.50;17.50;;;;;;;-8.28;100.00;140270.92;110211;1277;22186;-66
2024/02/11 05:59:36;;;;;;;33.80;18.90;;;;;;;-8.28;100.00;140272.39;110192;1278;22180;-66
2024/02/11 06:02:22;;;;;;;33.60;17.20;;;;;;;-8.28;100.00;140272.16;110187;1278;22221;-66
2024/02/11 06:05:13;;;;;;;35.50;20.10;;;;;;;-8.30;100.00;140266.72;110218;1278;22123;-66
2024/02/11 06:08:02;;;;;;;34.40;18.10;;;;;;;-8.30;100.00;140267.70;110208;1278;22995;-64
2024/02/11 06:10:50;;;;;;;36.20;19.50;;;;;;;-8.26;100.00;140276.59;110200;1278;22099;-64
2024/02/11 06:13:37;;;;;;;36.00;19.50;;;;;;;-8.25;100.00;140277.59;110343;1278;22115;-66
2024/02/11 06:16:24;;;;;;;38.60;18.70;;;;;;;-8.26;100.00;140276.09;110266;1278;22609;-67
2024/02/11 06:19:10;;;;;;;34.30;19.80;;;;;;;-8.26;100.00;140276.34;110346;1278;22156;-64
2024/02/11 06:21:56;;;;;;;38.90;20.20;;;;;;;-8.26;100.00;140276.34;110290;1278;22195;-63
2024/02/11 06:24:42;;;;;;;45.80;21.90;;;;;;;-8.24;100.00;140282.28;110267;1278;22124;-65
2024/02/11 06:27:28;;;;;;;36.80;20.60;;;;;;;-8.21;100.00;140287.95;110339;1278;22134;-65
2024/02/11 06:30:16;;;;;;;47.20;23.30;;;;;;;-8.16;100.00;140299.78;110274;1270;22328;-67
2024/02/11 06:33:03;;;;;;;39.70;22.30;;;;;;;-8.11;100.00;140312.36;110084;1279;22882;-65
2024/02/11 06:35:50;;;;;;;42.50;22.10;;;;;;;-8.08;100.00;140320.75;110111;1278;22807;-67
2024/02/11 06:38:37;;;;;;;38.70;19.70;;;;;;;-8.04;100.00;140328.41;110222;1278;22846;-67
2024/02/11 06:41:23;;;;;;;38.00;21.90;;;;;;;-8.03;100.00;140330.88;110234;1278;22144;-65
2024/02/11 06:44:12;;;;;;;38.60;20.90;;;;;;;-8.02;100.00;140334.05;110253;1272;22313;-68
2024/02/11 06:46:58;;;;;;;36.20;19.90;;;;;;;-7.95;100.00;140350.11;110369;1260;22172;-64
2024/02/11 06:49:44;;;;;;;37.30;18.90;;;;;;;-7.90;100.00;140363.42;110309;1270;22369;-68
2024/02/11 06:52:30;;;;;;;36.20;19.10;;;;;;;-7.87;100.00;140370.59;110337;1270;22384;-67
2024/02/11 06:55:18;;;;;;;37.10;20.30;;;;;;;-7.89;100.00;140365.91;110193;1274;22126;-66
2024/02/11 06:58:07;;;;;;;37.20;19.30;;;;;;;-7.90;100.00;140363.92;110236;1273;22137;-68
2024/02/11 07:00:53;;;;;;;36.30;19.30;;;;;;;-7.88;100.00;140368.86;110292;1278;22144;-66
2024/02/11 07:03:39;;;;;;;38.60;19.80;;;;;;;-7.88;100.00;140367.88;110215;1278;22150;-62
2024/02/11 07:06:25;;;;;;;40.60;21.80;;;;;;;-7.86;100.00;140371.58;110239;1278;22142;-64
2024/02/11 07:09:13;;;;;;;41.00;22.70;;;;;;;-7.83;100.00;140380.72;110213;1278;22294;-69
2024/02/11 07:11:59;;;;;;;38.80;21.30;;;;;;;-7.81;100.00;140384.91;110239;1278;22206;-64
2024/02/11 07:14:46;;;;;;;44.50;23.40;;;;;;;-7.79;100.00;140388.84;110229;1278;22082;-66
2024/02/11 07:17:33;;;;;;;51.30;25.00;;;;;;;-7.82;100.00;140383.19;110218;1278;22116;-64
2024/02/11 07:20:20;;;;;;;43.20;23.60;;;;;;;-7.84;100.00;140377.00;110237;1278;22105;-69
2024/02/11 07:23:07;;;;;;;37.10;20.40;;;;;;;-7.86;100.00;140373.08;110212;1278;22139;-63
2024/02/11 07:25:53;;;;;;;46.90;24.00;;;;;;;-7.87;100.00;140371.09;110237;1278;23041;-63
2024/02/11 07:28:39;;;;;;;38.20;21.80;;;;;;;-7.83;100.00;140380.47;110228;1278;22159;-66
2024/02/11 07:31:26;;;;;;;51.10;25.30;;;;;;;-7.80;100.00;140386.38;110492;1258;22171;-66
2024/02/11 07:34:12;;;;;;;41.50;22.70;;;;;;;-7.80;100.00;140387.88;110222;1278;22107;-66
2024/02/11 07:37:02;;;;;;;43.70;23.30;;;;;;;-7.81;100.00;140385.41;110219;1278;22163;-65
2024/02/11 07:39:49;;;;;;;36.10;19.80;;;;;;;-7.77;100.00;140393.05;110259;1277;22166;-67
2024/02/11 07:42:37;;;;;;;39.40;20.20;;;;;;;-7.82;100.00;140381.69;110253;1274;22211;-67
2024/02/11 07:45:23;;;;;;;38.90;21.00;;;;;;;-7.86;100.00;140372.83;110190;1271;22139;-64
2024/02/11 07:48:10;;;;;;;32.90;19.00;;;;;;;-7.90;100.00;140362.92;110188;1276;22320;-67
2024/02/11 07:50:57;;;;;;;27.90;16.60;;;;;;;-7.93;100.00;140357.03;110314;1278;22140;-68
2024/02/11 07:53:45;;;;;;;33.70;18.40;;;;;;;-7.99;100.00;140341.72;110201;1278;22825;-64
2024/02/11 07:56:31;;;;;;;29.60;17.70;;;;;;;-8.00;100.00;140338.75;110278;1278;22897;-64
2024/02/11 07:59:18;;;;;;;31.80;16.70;;;;;;;-8.01;100.00;140336.78;110222;1271;22162;-65
2024/02/11 08:02:06;;;;;;;35.50;19.20;;;;;;;-8.01;100.00;140336.30;110240;1261;22152;-64
2024/02/11 08:04:54;;;;;;;37.00;18.10;;;;;;;-7.96;100.00;140348.13;110170;1279;22119;-68
2024/02/11 08:07:40;;;;;;;35.80;18.90;;;;;;;-7.93;100.00;140355.55;110211;1279;22423;-67
2024/02/11 08:10:28;;;;;;;37.40;20.20;;;;;;;-7.92;100.00;140358.97;110208;1278;22162;-67
2024/02/11 08:13:17;;;;;;;32.40;18.50;;;;;;;-7.92;100.00;140358.98;110183;1279;22943;-66
2024/02/11 08:16:06;;;;;;;29.00;17.30;;;;;;;-7.91;100.00;140360.97;110036;1278;22133;-63
2024/02/11 08:18:56;;;;;;;34.80;18.80;;;;;;;-7.88;100.00;140369.34;110230;1278;22140;-66
2024/02/11 08:21:44;;;;;;;35.90;18.20;;;;;;;-7.82;100.00;140381.72;110227;1278;22140;-66
2024/02/11 08:24:33;;;;;;;34.50;18.90;;;;;;;-7.75;100.00;140398.70;110217;1278;22133;-65
2024/02/11 08:27:20;;;;;;;32.00;17.50;;;;;;;-7.73;100.00;140404.91;110233;1260;22164;-65
2024/02/11 08:30:10;;;;;;;39.20;19.30;;;;;;;-7.73;100.00;140405.38;110199;1278;22926;-64
2024/02/11 08:32:58;;;;;;;38.90;20.90;;;;;;;-7.67;100.00;140418.97;110214;1276;22127;-64
2024/02/11 08:35:46;;;;;;;44.30;21.60;;;;;;;-7.59;100.00;140437.72;110222;1278;22122;-66
2024/02/11 08:38:32;;;;;;;44.20;22.20;;;;;;;-7.53;100.00;140451.53;110260;1271;22993;-65
2024/02/11 08:41:20;;;;;;;42.00;19.90;;;;;;;-7.46;100.00;140468.81;110342;1277;22848;-63
2024/02/11 08:44:08;;;;;;;36.70;19.50;;;;;;;-7.42;100.00;140480.42;110235;1277;22217;-64
2024/02/11 08:46:57;;;;;;;37.80;20.30;;;;;;;-7.31;100.00;140505.84;110239;1277;22089;-64
2024/02/11 08:49:47;;;;;;;43.50;22.50;;;;;;;-7.31;100.00;140506.34;110428;1277;22141;-65
2024/02/11 08:52:35;;;;;;;42.30;22.70;;;;;;;-7.31;100.00;140506.84;110406;1277;22146;-65
2024/02/11 08:55:21;;;;;;;48.20;24.00;;;;;;;-7.33;100.00;140502.16;110391;1277;22130;-65
2024/02/11 08:58:09;;;;;;;42.40;23.70;;;;;;;-7.28;100.00;140512.28;110095;1277;22178;-65
2024/02/11 09:00:59;;;;;;;43.20;23.50;;;;;;;-7.26;100.00;140518.92;110303;1277;22123;-65
2024/02/11 09:03:46;;;;;;;40.10;19.30;;;;;;;-7.23;100.00;140525.84;110396;1277;22124;-66
2024/02/11 09:06:33;;;;;;;37.30;19.50;;;;;;;-7.23;100.00;140524.13;110243;1277;22134;-64
2024/02/11 09:09:25;;;;;;;42.10;21.90;;;;;;;-7.24;100.00;140522.41;110342;1277;22154;-65
2024/02/11 09:12:14;;;;;;;38.90;20.70;;;;;;;-7.17;100.00;140537.70;110232;1278;22148;-62
2024/02/11 09:15:01;;;;;;;37.10;21.10;;;;;;;-7.21;100.00;140529.31;110262;1274;22157;-63
2024/02/11 09:17:47;;;;;;;36.00;20.20;;;;;;;-7.23;100.00;140526.83;110204;1278;22323;-63
2024/02/11 09:20:35;;;;;;;44.50;22.10;;;;;;;-7.15;100.00;140543.61;110140;1278;22330;-64
2024/02/11 09:23:22;;;;;;;45.20;24.50;;;;;;;-7.08;100.00;140560.16;110164;1270;114025;-66
2024/02/11 09:26:10;;;;;;;50.00;25.90;;;;;;;-7.10;100.00;140556.22;110200;1273;22329;-66
2024/02/11 09:28:58;;;;;;;54.90;27.60;;;;;;;-7.08;100.00;140560.16;110186;1276;22379;-64
2024/02/11 09:31:46;;;;;;;47.40;25.30;;;;;;;-7.04;100.00;140570.05;110202;1278;22156;-63
2024/02/11 09:34:33;;;;;;;46.90;24.30;;;;;;;-6.95;100.00;140591.78;110213;1274;22890;-64
2024/02/11 09:37:21;;;;;;;46.30;24.10;;;;;;;-6.85;100.00;140615.73;110072;1279;22130;-65
2024/02/11 09:40:08;;;;;;;38.80;21.00;;;;;;;-6.77;100.00;140634.75;110078;1279;23005;-64
2024/02/11 09:42:57;;;;;;;38.20;22.50;;;;;;;-6.68;100.00;140657.48;110039;1279;22854;-64
2024/02/11 09:45:45;;;;;;;43.10;22.40;;;;;;;-6.61;100.00;140673.55;110095;1279;22254;-65
2024/02/11 09:48:32;;;;;;;44.30;22.80;;;;;;;-6.60;100.00;140676.27;110082;1279;22139;-65
2024/02/11 09:51:22;;;;;;;42.00;24.90;;;;;;;-6.58;100.00;140682.67;110105;1258;22154;-65
2024/02/11 09:54:09;;;;;;;47.70;23.90;;;;;;;-6.58;100.00;140681.45;110137;1277;22337;-63
2024/02/11 09:56:56;;;;;;;49.30;24.50;;;;;;;-6.58;100.00;140681.20;110286;1277;22139;-63
2024/02/11 09:59:45;;;;;;;47.90;25.40;;;;;;;-6.57;100.00;140684.16;110398;1277;22971;-63
2024/02/11 10:02:33;;;;;;;51.20;28.40;;;;;;;-6.58;100.00;140681.22;110408;1277;22949;-66
2024/02/11 10:05:23;;;;;;;53.40;27.90;;;;;;;-6.58;100.00;140681.45;110389;1277;22154;-65
2024/02/11 10:08:19;;;;;;;47.70;25.70;;;;;;;-6.65;100.00;140664.64;110445;1258;22361;-64
2024/02/11 10:11:07;;;;;;;57.60;29.00;;;;;;;-6.72;100.00;140647.13;110328;1277;22162;-64
2024/02/11 10:13:59;;;;;;;51.60;27.90;;;;;;;-6.73;100.00;140645.16;110224;1278;22170;-64
2024/02/11 10:16:48;;;;;;;45.90;25.90;;;;;;;-6.65;100.00;140664.16;110095;1278;22146;-64
2024/02/11 10:19:35;;;;;;;45.00;24.00;;;;;;;-6.59;100.00;140679.72;110340;1261;22124;-67
2024/02/11 10:22:22;;;;;;;53.60;25.10;;;;;;;-6.59;100.00;140680.45;110219;1278;23033;-68
2024/02/11 10:25:16;;;;;;;42.70;24.20;;;;;;;-6.58;100.00;140682.45;110076;1278;22857;-64
2024/02/11 10:28:06;;;;;;;40.90;22.50;;;;;;;-6.55;100.00;140689.61;110200;1278;22853;-65
2024/02/11 10:30:54;;;;;;;40.60;23.20;;;;;;;-6.56;100.00;140686.66;110235;1278;22876;-64
2024/02/11 10:33:42;;;;;;;44.10;24.00;;;;;;;-6.57;100.00;140682.95;110192;1278;22311;-66
2024/02/11 10:36:30;;;;;;;43.30;24.10;;;;;;;-6.60;100.00;140677.75;110218;1261;22144;-66
2024/02/11 10:39:17;;;;;;;42.90;23.30;;;;;;;-6.62;100.00;140672.30;110225;1278;22177;-66
2024/02/11 10:42:04;;;;;;;44.20;24.50;;;;;;;-6.58;100.00;140680.47;110355;1261;22161;-64
2024/02/11 10:44:51;;;;;;;42.70;21.30;;;;;;;-6.54;100.00;140690.09;110060;1278;22151;-65
2024/02/11 10:47:39;;;;;;;44.00;23.00;;;;;;;-6.52;100.00;140694.78;110223;1278;22853;-64
2024/02/11 10:51:12;;;;;;;45.80;24.40;;;;;;;-6.51;100.00;140699.00;110184;1260;22257;-66
2024/02/11 10:54:01;;;;;;;;;;;;;;;-6.49;100.00;140704.67;110235;1278;22259;-63
2024/02/11 10:56:48;;;;;;;48.20;26.70;;;;;;;-6.47;100.00;140708.41;110209;1278;23134;-64
2024/02/11 10:59:37;;;;;;;52.70;26.90;;;;;;;-6.43;100.00;140719.50;110216;1278;22919;-66
2024/02/11 11:02:26;;;;;;;54.70;30.00;;;;;;;-6.40;100.00;140725.19;110228;1278;22816;-63
2024/02/11 11:05:17;;;;;;;52.40;28.80;;;;;;;-6.40;100.00;140724.70;110289;1278;22846;-65
2024/02/11 11:08:07;;;;;;;52.30;28.60;;;;;;;-6.43;100.00;140718.28;110309;1272;22926;-64
2024/02/11 11:10:59;;;;;;;52.80;29.40;;;;;;;-6.45;100.00;140713.33;110400;1269;22136;-65
2024/02/11 11:13:48;;;;;;;53.30;28.60;;;;;;;-6.46;100.00;140712.09;110407;1277;22133;-65
2024/02/11 11:16:41;;;;;;;47.60;27.70;;;;;;;-6.40;100.00;140725.44;110385;1277;22143;-68
2024/02/11 11:19:32;;;;;;;49.60;29.60;;;;;;;-6.38;100.00;140729.86;110608;1258;22152;-66
2024/02/11 11:22:27;;;;;;;49.30;28.10;;;;;;;-6.36;100.00;140735.08;110389;1277;22199;-68
2024/02/11 11:25:14;;;;;;;50.70;26.30;;;;;;;-6.42;100.00;140719.48;110400;1277;22114;-64
2024/02/11 11:28:09;;;;;;;50.90;26.80;;;;;;;-6.50;100.00;140701.47;110398;1277;22767;-66
2024/02/11 11:30:57;;;;;;;42.80;23.20;;;;;;;-6.52;100.00;140694.80;110403;1277;22152;-67
2024/02/11 11:33:43;;;;;;;50.80;28.00;;;;;;;-6.55;100.00;140689.84;110420;1259;22159;-65
2024/02/11 11:36:33;;;;;;;45.60;25.60;;;;;;;-6.61;100.00;140674.05;110180;1277;22918;-68
2024/02/11 11:39:19;;;;;;;51.70;26.60;;;;;;;-6.65;100.00;140664.41;110188;1271;22280;-67
2024/02/11 11:42:06;;;;;;;48.00;26.70;;;;;;;-6.68;100.00;140656.25;110330;1278;22272;-65
2024/02/11 11:44:52;;;;;;;43.20;25.30;;;;;;;-6.65;100.00;140663.91;110220;1278;22230;-66
2024/02/11 11:47:38;;;;;;;47.40;26.00;;;;;;;-6.62;100.00;140670.59;110304;1260;22179;-71
2024/02/11 11:50:25;;;;;;;49.10;27.90;;;;;;;-6.63;100.00;140669.84;110212;1261;22146;-66
2024/02/11 11:53:19;;;;;;;51.10;27.00;;;;;;;-6.66;100.00;140663.16;110133;1278;22188;-68
2024/02/11 11:56:06;;;;;;;50.60;25.50;;;;;;;-6.74;100.00;140643.16;110236;1271;22215;-68
2024/02/11 11:59:02;;;;;;;42.40;24.70;;;;;;;-6.76;100.00;140638.72;110290;1273;22139;-71
2024/02/11 12:01:49;;;;;;;46.10;25.70;;;;;;;-6.75;100.00;140639.20;110323;1270;22117;-65
2024/02/11 12:04:36;;;;;;;46.40;26.10;;;;;;;-6.75;100.00;140639.20;110301;1278;22119;-67
2024/02/11 12:07:25;;;;;;;53.00;29.10;;;;;;;-6.75;100.00;140640.44;110200;1278;22310;-68
2024/02/11 12:10:13;;;;;;;47.40;26.60;;;;;;;-6.74;100.00;140640.92;110161;1278;22390;-73
2024/02/11 12:13:00;;;;;;;48.20;28.50;;;;;;;-6.76;100.00;140638.95;110248;1277;22135;-71
2024/02/11 12:15:46;;;;;;;44.50;25.00;;;;;;;-6.75;100.00;140639.70;110336;1258;22124;-66
2024/02/11 12:18:37;;;;;;;46.00;27.20;;;;;;;-6.77;100.00;140635.50;110394;1259;22153;-69
2024/02/11 12:21:25;;;;;;;43.40;25.30;;;;;;;-6.74;100.00;140640.92;110363;1277;22142;-73
2024/02/11 12:24:11;;;;;;;49.80;26.20;;;;;;;-6.72;100.00;140646.88;110358;1277;22890;-66